Nyk Delphinus — 3ENU7 — position and weather

sailwx.info

Track history (hours):
 
Tides and Currents Weather Stations Pressure Air Temp Water Temp Dewpoint Dewpoint Depression Visibility Wind Speed Wind Dir Waves Ship Positions

Nyk Delphinus

Last reported at 2017-Dec-07 11:21 UTC. Time now 2017-Dec-13 20:54 UTC.
Position N 43°09' W 130°49'.

Length 294 m; draft 10.7 m.

Type: Cargo ship. MMSI: 352776000.

Date/timePositionNaut miles runAvg speedWind from/ knotsBaromVisibWave heightAir tempDewpointWater temp
2017-Dec-07 11:21N 43°09' W 130°49'719.2
2017-Dec-07 10:59N 43°05' W 130°41'4719.6
2017-Dec-07 08:36N 42°36' W 129°51'219.6
2017-Dec-07 08:30N 42°34' W 129°49'16919.9
2017-Dec-07 00:00N 40°42' W 127°00'4218.2 170 / 61025.010.8 18.013.115.0
2017-Dec-06 21:40N 40°12' W 126°20'320.0
2017-Dec-06 21:30N 40°10' W 126°17'918.6
2017-Dec-06 21:00N 40°04' W 126°08'  
2017-Dec-04 10:31N 37°31' W 122°40'510.3
2017-Dec-04 10:01N 37°26' W 122°40'510.4
2017-Dec-04 09:30N 37°20' W 122°39'510.5
2017-Dec-04 09:00N 37°15' W 122°39'510.9
2017-Dec-04 08:30N 37°10' W 122°37'1210.9
2017-Dec-04 07:23N 36°58' W 122°34'1410.8
2017-Dec-04 06:07N 36°45' W 122°30'211.0
2017-Dec-04 05:59N 36°43' W 122°29'711.1
2017-Dec-04 05:19N 36°37' W 122°25'310.9
2017-Dec-04 05:00N 36°34' W 122°24'611.0
2017-Dec-04 04:30N 36°29' W 122°20'611.0
2017-Dec-04 04:00N 36°24' W 122°17'511.0
2017-Dec-04 03:30N 36°19' W 122°14'611.1
2017-Dec-04 03:00N 36°14' W 122°11'611.2
2017-Dec-04 02:30N 36°09' W 122°07'611.3
2017-Dec-04 02:00N 36°04' W 122°04'611.1
2017-Dec-04 01:30N 35°59' W 122°01'4 9.0
2017-Dec-04 01:00N 35°55' W 121°58'1 2.2
2017-Dec-04 00:30N 35°57' W 121°58'1 2.2
2017-Dec-04 00:00N 35°58' W 121°58'1 2.3
2017-Dec-03 23:30N 35°59' W 121°58'1 2.0
2017-Dec-03 23:00N 35°60' W 121°59'1 1.8
2017-Dec-03 22:30N 36°01' W 121°59'1 1.8
2017-Dec-03 22:00N 36°01' W 121°59'1 1.8
2017-Dec-03 21:30N 36°02' W 121°60'1 1.7
2017-Dec-03 21:00N 36°03' W 121°60'1 1.7
2017-Dec-03 20:30N 36°04' W 122°00'1 1.5
2017-Dec-03 20:00N 36°05' W 122°00'1 1.6
2017-Dec-03 19:30N 36°05' W 122°00'1 1.5
2017-Dec-03 19:00N 36°06' W 122°00'1 1.5
2017-Dec-03 18:30N 36°07' W 122°00'1 1.5
2017-Dec-03 18:00N 36°08' W 122°00'1 1.4
2017-Dec-03 17:30N 36°08' W 122°00'1 1.3
2017-Dec-03 17:00N 36°09' W 122°00'1 1.4
2017-Dec-03 16:30N 36°10' W 122°00'1 1.3
2017-Dec-03 16:00N 36°10' W 122°00'1 1.1
2017-Dec-03 15:30N 36°11' W 122°00'1 1.4
2017-Dec-03 15:00N 36°11' W 122°01'1 1.4
2017-Dec-03 14:30N 36°12' W 122°02'1 1.5
2017-Dec-03 14:00N 36°12' W 122°02'1 1.3
2017-Dec-03 13:30N 36°13' W 122°03'0 1.0
2017-Dec-03 13:00N 36°14' W 122°02'3 6.9
2017-Dec-03 12:30N 36°11' W 121°60'0 0.3
2017-Dec-03 12:00N 36°11' W 121°60'1 1.5
2017-Dec-03 11:30N 36°11' W 122°00'1 1.5
2017-Dec-03 11:00N 36°12' W 122°01'1 1.5
2017-Dec-03 10:30N 36°13' W 122°01'1 1.1
2017-Dec-03 10:00N 36°13' W 122°02'0 0.8
2017-Dec-03 09:30N 36°13' W 122°02'0 0.2
2017-Dec-03 09:00N 36°14' W 122°02'0 0.8
2017-Dec-03 08:28N 36°13' W 122°02'3 6.9
2017-Dec-03 08:00N 36°10' W 122°00'612.5
2017-Dec-03 07:30N 36°04' W 121°57'612.4
2017-Dec-03 07:00N 35°59' W 121°54'611.9
2017-Dec-03 06:30N 35°53' W 121°51'611.6
2017-Dec-03 06:00N 35°48' W 121°49'611.7
2017-Dec-03 05:30N 35°43' W 121°46'612.2
2017-Dec-03 05:00N 35°37' W 121°42'612.5
2017-Dec-03 04:30N 35°32' W 121°38'612.7
2017-Dec-03 04:00N 35°26' W 121°34'612.1
2017-Dec-03 03:30N 35°21' W 121°31'612.0
2017-Dec-03 03:00N 35°16' W 121°27'611.9
2017-Dec-03 02:30N 35°11' W 121°23'611.7
2017-Dec-03 02:00N 35°06' W 121°20'611.9
2017-Dec-03 01:30N 35°01' W 121°16'613.0
2017-Dec-03 01:00N 34°55' W 121°12'1019.4
2017-Dec-03 00:30N 34°47' W 121°06'1019.4
2017-Dec-03 00:00N 34°38' W 121°00'918.2
2017-Dec-02 23:30N 34°30' W 120°55'816.8
2017-Dec-02 23:00N 34°26' W 120°46'918.6
2017-Dec-02 22:30N 34°23' W 120°36'918.5
2017-Dec-02 22:00N 34°21' W 120°25'918.8
2017-Dec-02 21:30N 34°18' W 120°14'1019.1
2017-Dec-02 20:59N 34°15' W 120°02'919.1
2017-Dec-02 20:30N 34°13' W 119°51'1019.2
2017-Dec-02 19:59N 34°10' W 119°40'919.2
2017-Dec-02 19:30N 34°07' W 119°29'1019.9
2017-Dec-02 19:00N 34°05' W 119°18'1019.6
2017-Dec-02 18:30N 34°00' W 119°07'713.5
2017-Dec-02 17:58N 33°57' W 118°59'511.8
2017-Dec-02 17:30N 33°54' W 118°54'611.7
2017-Dec-02 17:00N 33°51' W 118°48'611.6
2017-Dec-02 16:30N 33°48' W 118°41'611.9
2017-Dec-02 16:00N 33°45' W 118°35'611.7
2017-Dec-02 15:30N 33°43' W 118°29'611.6
2017-Dec-02 15:00N 33°40' W 118°23'510.7
2017-Dec-02 14:31N 33°38' W 118°17'5 9.4
2017-Dec-02 14:00N 33°43' W 118°15'3 5.1
2017-Dec-02 13:30N 33°45' W 118°16'1 1.8
2017-Dec-02 13:00N 33°46' W 118°15'0 0.0
2017-Dec-02 12:26N 33°46' W 118°15'0 0.0
2017-Dec-02 11:56N 33°46' W 118°15'0 0.0
2017-Dec-02 11:26N 33°46' W 118°15'0 0.0
2017-Dec-02 10:57N 33°46' W 118°15'0 0.0
2017-Dec-02 10:20N 33°46' W 118°15'0 0.0
2017-Dec-02 09:56N 33°46' W 118°15'0 0.0
2017-Dec-02 09:27N 33°46' W 118°15'0 0.0
2017-Dec-02 08:57N 33°46' W 118°15'0 0.0
2017-Dec-02 08:26N 33°46' W 118°15'0 0.0
2017-Dec-02 07:51N 33°46' W 118°15'0 0.0
2017-Dec-02 07:26N 33°46' W 118°15'0 0.0
2017-Dec-02 06:57N 33°46' W 118°15'0 0.0
2017-Dec-02 06:27N 33°46' W 118°15'0 0.0
2017-Dec-02 05:59N 33°46' W 118°15'0 0.0
2017-Dec-02 05:27N 33°46' W 118°15'0 0.0
2017-Dec-02 04:57N 33°46' W 118°15'0 0.0
2017-Dec-02 04:26N 33°46' W 118°15'0 0.0
2017-Dec-02 02:14N 33°46' W 118°15'0 0.0
2017-Dec-02 00:15N 33°46' W 118°15'0 0.0
2017-Dec-01 23:56N 33°46' W 118°15'0 0.0
2017-Dec-01 23:26N 33°46' W 118°15'0 0.0
2017-Dec-01 22:51N 33°46' W 118°15'0 0.0
2017-Dec-01 22:26N 33°46' W 118°15'0 0.0
2017-Dec-01 21:57N 33°46' W 118°15'0 0.0
2017-Dec-01 20:33N 33°46' W 118°15'0 0.1
2017-Dec-01 20:26N 33°46' W 118°15'0 0.0
2017-Dec-01 19:50N 33°46' W 118°15'0 0.0
2017-Dec-01 19:21N 33°46' W 118°15'0 0.0
2017-Dec-01 18:57N 33°46' W 118°15'0 0.0
2017-Dec-01 18:26N 33°46' W 118°15'0 0.0
2017-Dec-01 17:56N 33°46' W 118°15'0 0.0
2017-Dec-01 17:26N 33°46' W 118°15'0 0.0
2017-Dec-01 16:56N 33°46' W 118°15'0 0.0
2017-Dec-01 16:27N 33°46' W 118°15'0 0.0
2017-Dec-01 15:56N 33°46' W 118°15'0 0.0
2017-Dec-01 15:26N 33°46' W 118°15'0 0.0
2017-Dec-01 14:57N 33°46' W 118°15'0 0.0
2017-Dec-01 14:15N 33°46' W 118°15'0 0.0
2017-Dec-01 13:57N 33°46' W 118°15'0 0.0
2017-Dec-01 13:27N 33°46' W 118°15'0 0.0
2017-Dec-01 12:57N 33°46' W 118°15'0 0.0
2017-Dec-01 12:27N 33°46' W 118°15'0 0.0
2017-Dec-01 11:57N 33°46' W 118°15'0 0.0
2017-Dec-01 11:27N 33°46' W 118°15'0 0.0
2017-Dec-01 10:57N 33°46' W 118°15'0 0.0
2017-Dec-01 09:41N 33°46' W 118°15'0 0.0
2017-Dec-01 09:23N 33°46' W 118°15'0 0.0
2017-Dec-01 08:59N 33°46' W 118°15'0 0.0
2017-Dec-01 03:56N 33°46' W 118°15'0 0.0
2017-Dec-01 03:26N 33°46' W 118°15'0 0.0
2017-Dec-01 02:45N 33°46' W 118°15'0 0.0
2017-Dec-01 02:27N 33°46' W 118°15'0 0.0
2017-Dec-01 01:59N 33°46' W 118°15'0 0.0
2017-Dec-01 01:27N 33°46' W 118°15'0 0.0
2017-Dec-01 00:56N 33°46' W 118°15'0 0.0
2017-Dec-01 00:27N 33°46' W 118°15'0 0.0
2017-Nov-30 23:56N 33°46' W 118°15'0 0.0
2017-Nov-30 23:29N 33°46' W 118°15'0 0.0
2017-Nov-30 22:56N 33°46' W 118°15'0 0.0
2017-Nov-30 22:26N 33°46' W 118°15'0 0.0
2017-Nov-30 21:57N 33°46' W 118°15'0 0.0
2017-Nov-30 21:20N 33°46' W 118°15'0 0.0
2017-Nov-30 13:58N 33°46' W 118°15'3 3.4
2017-Nov-30 13:10N 33°43' W 118°16'3 9.1
2017-Nov-30 12:52N 33°41' W 118°14'3 8.1
2017-Nov-30 12:30N 33°38' W 118°13'510.8
2017-Nov-30 12:00N 33°36' W 118°19'611.2
2017-Nov-30 11:30N 33°38' W 118°26'611.6
2017-Nov-30 11:00N 33°41' W 118°32'611.5
2017-Nov-30 10:29N 33°44' W 118°38'611.5
2017-Nov-30 10:00N 33°47' W 118°44'611.3
2017-Nov-30 09:30N 33°50' W 118°50'611.4
2017-Nov-30 09:00N 33°53' W 118°56'611.5
2017-Nov-30 08:29N 33°56' W 119°02'611.5
2017-Nov-30 08:00N 33°58' W 119°08'612.1
2017-Nov-30 07:29N 34°01' W 119°14'612.0
2017-Nov-30 07:00N 34°04' W 119°21'611.5
2017-Nov-30 06:27N 34°05' W 119°28'511.7
2017-Nov-30 05:59N 34°07' W 119°34'611.5
2017-Nov-30 05:29N 34°08' W 119°41'613.3
2017-Nov-30 05:00N 34°10' W 119°49'613.0
2017-Nov-30 04:30N 34°12' W 119°56'813.6
2017-Nov-30 03:57N 34°14' W 120°05'713.4
2017-Nov-30 03:27N 34°15' W 120°13'713.4
2017-Nov-30 02:57N 34°17' W 120°20'713.0
2017-Nov-30 02:24N 34°19' W 120°29'512.6
2017-Nov-30 01:58N 34°20' W 120°35'613.0
2017-Nov-30 01:30N 34°22' W 120°42'713.6
2017-Nov-30 01:00N 34°24' W 120°50'713.6
2017-Nov-30 00:30N 34°26' W 120°58'713.7
2017-Nov-30 00:00N 34°28' W 121°06'713.9
2017-Nov-29 23:30N 34°30' W 121°14'713.9
2017-Nov-29 23:00N 34°32' W 121°22'713.9
2017-Nov-29 22:31N 34°35' W 121°30'714.1
2017-Nov-29 22:00N 34°37' W 121°38'714.1
2017-Nov-29 21:30N 34°39' W 121°46'714.0
2017-Nov-29 21:00N 34°41' W 121°54'713.9
2017-Nov-29 20:30N 34°44' W 122°02'713.9
2017-Nov-29 20:00N 34°46' W 122°10'714.1
2017-Nov-29 19:30N 34°48' W 122°18'714.0
2017-Nov-29 19:00N 34°50' W 122°26'714.2
2017-Nov-29 18:30N 34°52' W 122°35'612.1
2017-Nov-29 18:01N 34°54' W 122°42'6 7.8
2017-Nov-29 17:12N 34°57' W 122°49'916.3
2017-Nov-29 16:40N 34°59' W 122°59'316.8
2017-Nov-29 16:30N 35°00' W 123°02'816.8
2017-Nov-29 16:01N 35°03' W 123°12'  
Track history (hours):
 
Tides and Currents Weather Stations Pressure Air Temp Water Temp Dewpoint Dewpoint Depression Visibility Wind Speed Wind Dir Waves Ship Positions

Nyk Delphinus

Last reported at 2017-Dec-07 11:21 UTC. Time now 2017-Dec-13 20:54 UTC.
Position N 43°09' W 130°49'.

Length 294 m; draft 10.7 m.

Type: Cargo ship. MMSI: 352776000.

Date/timePositionNaut miles runAvg speedWind from/ knotsBaromVisibWave heightAir tempDewpointWater temp
2017-Dec-07 11:21N 43°09' W 130°49'719.2
2017-Dec-07 10:59N 43°05' W 130°41'4719.6
2017-Dec-07 08:36N 42°36' W 129°51'219.6
2017-Dec-07 08:30N 42°34' W 129°49'16919.9
2017-Dec-07 00:00N 40°42' W 127°00'4218.2 170 / 61025.010.8 18.013.115.0
2017-Dec-06 21:40N 40°12' W 126°20'320.0
2017-Dec-06 21:30N 40°10' W 126°17'918.6
2017-Dec-06 21:00N 40°04' W 126°08'  
2017-Dec-04 10:31N 37°31' W 122°40'510.3
2017-Dec-04 10:01N 37°26' W 122°40'510.4
2017-Dec-04 09:30N 37°20' W 122°39'510.5
2017-Dec-04 09:00N 37°15' W 122°39'510.9
2017-Dec-04 08:30N 37°10' W 122°37'1210.9
2017-Dec-04 07:23N 36°58' W 122°34'1410.8
2017-Dec-04 06:07N 36°45' W 122°30'211.0
2017-Dec-04 05:59N 36°43' W 122°29'711.1
2017-Dec-04 05:19N 36°37' W 122°25'310.9
2017-Dec-04 05:00N 36°34' W 122°24'611.0
2017-Dec-04 04:30N 36°29' W 122°20'611.0
2017-Dec-04 04:00N 36°24' W 122°17'511.0
2017-Dec-04 03:30N 36°19' W 122°14'611.1
2017-Dec-04 03:00N 36°14' W 122°11'611.2
2017-Dec-04 02:30N 36°09' W 122°07'611.3
2017-Dec-04 02:00N 36°04' W 122°04'611.1
2017-Dec-04 01:30N 35°59' W 122°01'4 9.0
2017-Dec-04 01:00N 35°55' W 121°58'1 2.2
2017-Dec-04 00:30N 35°57' W 121°58'1 2.2
2017-Dec-04 00:00N 35°58' W 121°58'1 2.3
2017-Dec-03 23:30N 35°59' W 121°58'1 2.0
2017-Dec-03 23:00N 35°60' W 121°59'1 1.8
2017-Dec-03 22:30N 36°01' W 121°59'1 1.8
2017-Dec-03 22:00N 36°01' W 121°59'1 1.8
2017-Dec-03 21:30N 36°02' W 121°60'1 1.7
2017-Dec-03 21:00N 36°03' W 121°60'1 1.7
2017-Dec-03 20:30N 36°04' W 122°00'1 1.5
2017-Dec-03 20:00N 36°05' W 122°00'1 1.6
2017-Dec-03 19:30N 36°05' W 122°00'1 1.5
2017-Dec-03 19:00N 36°06' W 122°00'1 1.5
2017-Dec-03 18:30N 36°07' W 122°00'1 1.5
2017-Dec-03 18:00N 36°08' W 122°00'1 1.4
2017-Dec-03 17:30N 36°08' W 122°00'1 1.3
2017-Dec-03 17:00N 36°09' W 122°00'1 1.4
2017-Dec-03 16:30N 36°10' W 122°00'1 1.3
2017-Dec-03 16:00N 36°10' W 122°00'1 1.1
2017-Dec-03 15:30N 36°11' W 122°00'1 1.4
2017-Dec-03 15:00N 36°11' W 122°01'1 1.4
2017-Dec-03 14:30N 36°12' W 122°02'1 1.5
2017-Dec-03 14:00N 36°12' W 122°02'1 1.3
2017-Dec-03 13:30N 36°13' W 122°03'0 1.0
2017-Dec-03 13:00N 36°14' W 122°02'3 6.9
2017-Dec-03 12:30N 36°11' W 121°60'0 0.3
2017-Dec-03 12:00N 36°11' W 121°60'1 1.5
2017-Dec-03 11:30N 36°11' W 122°00'1 1.5
2017-Dec-03 11:00N 36°12' W 122°01'1 1.5
2017-Dec-03 10:30N 36°13' W 122°01'1 1.1
2017-Dec-03 10:00N 36°13' W 122°02'0 0.8
2017-Dec-03 09:30N 36°13' W 122°02'0 0.2
2017-Dec-03 09:00N 36°14' W 122°02'0 0.8
2017-Dec-03 08:28N 36°13' W 122°02'3 6.9
2017-Dec-03 08:00N 36°10' W 122°00'612.5
2017-Dec-03 07:30N 36°04' W 121°57'612.4
2017-Dec-03 07:00N 35°59' W 121°54'611.9
2017-Dec-03 06:30N 35°53' W 121°51'611.6
2017-Dec-03 06:00N 35°48' W 121°49'611.7
2017-Dec-03 05:30N 35°43' W 121°46'612.2
2017-Dec-03 05:00N 35°37' W 121°42'612.5
2017-Dec-03 04:30N 35°32' W 121°38'612.7
2017-Dec-03 04:00N 35°26' W 121°34'612.1
2017-Dec-03 03:30N 35°21' W 121°31'612.0
2017-Dec-03 03:00N 35°16' W 121°27'611.9
2017-Dec-03 02:30N 35°11' W 121°23'611.7
2017-Dec-03 02:00N 35°06' W 121°20'611.9
2017-Dec-03 01:30N 35°01' W 121°16'613.0
2017-Dec-03 01:00N 34°55' W 121°12'1019.4
2017-Dec-03 00:30N 34°47' W 121°06'1019.4
2017-Dec-03 00:00N 34°38' W 121°00'918.2
2017-Dec-02 23:30N 34°30' W 120°55'816.8
2017-Dec-02 23:00N 34°26' W 120°46'918.6
2017-Dec-02 22:30N 34°23' W 120°36'918.5
2017-Dec-02 22:00N 34°21' W 120°25'918.8
2017-Dec-02 21:30N 34°18' W 120°14'1019.1
2017-Dec-02 20:59N 34°15' W 120°02'919.1
2017-Dec-02 20:30N 34°13' W 119°51'1019.2
2017-Dec-02 19:59N 34°10' W 119°40'919.2
2017-Dec-02 19:30N 34°07' W 119°29'1019.9
2017-Dec-02 19:00N 34°05' W 119°18'1019.6
2017-Dec-02 18:30N 34°00' W 119°07'713.5
2017-Dec-02 17:58N 33°57' W 118°59'511.8
2017-Dec-02 17:30N 33°54' W 118°54'611.7
2017-Dec-02 17:00N 33°51' W 118°48'611.6
2017-Dec-02 16:30N 33°48' W 118°41'611.9
2017-Dec-02 16:00N 33°45' W 118°35'611.7
2017-Dec-02 15:30N 33°43' W 118°29'611.6
2017-Dec-02 15:00N 33°40' W 118°23'510.7
2017-Dec-02 14:31N 33°38' W 118°17'5 9.4
2017-Dec-02 14:00N 33°43' W 118°15'3 5.1
2017-Dec-02 13:30N 33°45' W 118°16'1 1.8
2017-Dec-02 13:00N 33°46' W 118°15'0 0.0
2017-Dec-02 12:26N 33°46' W 118°15'0 0.0
2017-Dec-02 11:56N 33°46' W 118°15'0 0.0
2017-Dec-02 11:26N 33°46' W 118°15'0 0.0
2017-Dec-02 10:57N 33°46' W 118°15'0 0.0
2017-Dec-02 10:20N 33°46' W 118°15'0 0.0
2017-Dec-02 09:56N 33°46' W 118°15'0 0.0
2017-Dec-02 09:27N 33°46' W 118°15'0 0.0
2017-Dec-02 08:57N 33°46' W 118°15'0 0.0
2017-Dec-02 08:26N 33°46' W 118°15'0 0.0
2017-Dec-02 07:51N 33°46' W 118°15'0 0.0
2017-Dec-02 07:26N 33°46' W 118°15'0 0.0
2017-Dec-02 06:57N 33°46' W 118°15'0 0.0
2017-Dec-02 06:27N 33°46' W 118°15'0 0.0
2017-Dec-02 05:59N 33°46' W 118°15'0 0.0
2017-Dec-02 05:27N 33°46' W 118°15'0 0.0
2017-Dec-02 04:57N 33°46' W 118°15'0 0.0
2017-Dec-02 04:26N 33°46' W 118°15'0 0.0
2017-Dec-02 02:14N 33°46' W 118°15'0 0.0
2017-Dec-02 00:15N 33°46' W 118°15'0 0.0
2017-Dec-01 23:56N 33°46' W 118°15'0 0.0
2017-Dec-01 23:26N 33°46' W 118°15'0 0.0
2017-Dec-01 22:51N 33°46' W 118°15'0 0.0
2017-Dec-01 22:26N 33°46' W 118°15'0 0.0
2017-Dec-01 21:57N 33°46' W 118°15'0 0.0
2017-Dec-01 20:33N 33°46' W 118°15'0 0.1
2017-Dec-01 20:26N 33°46' W 118°15'0 0.0
2017-Dec-01 19:50N 33°46' W 118°15'0 0.0
2017-Dec-01 19:21N 33°46' W 118°15'0 0.0
2017-Dec-01 18:57N 33°46' W 118°15'0 0.0
2017-Dec-01 18:26N 33°46' W 118°15'0 0.0
2017-Dec-01 17:56N 33°46' W 118°15'0 0.0
2017-Dec-01 17:26N 33°46' W 118°15'0 0.0
2017-Dec-01 16:56N 33°46' W 118°15'0 0.0
2017-Dec-01 16:27N 33°46' W 118°15'0 0.0
2017-Dec-01 15:56N 33°46' W 118°15'0 0.0
2017-Dec-01 15:26N 33°46' W 118°15'0 0.0
2017-Dec-01 14:57N 33°46' W 118°15'0 0.0
2017-Dec-01 14:15N 33°46' W 118°15'0 0.0
2017-Dec-01 13:57N 33°46' W 118°15'0 0.0
2017-Dec-01 13:27N 33°46' W 118°15'0 0.0
2017-Dec-01 12:57N 33°46' W 118°15'0 0.0
2017-Dec-01 12:27N 33°46' W 118°15'0 0.0
2017-Dec-01 11:57N 33°46' W 118°15'0 0.0
2017-Dec-01 11:27N 33°46' W 118°15'0 0.0
2017-Dec-01 10:57N 33°46' W 118°15'0 0.0
2017-Dec-01 09:41N 33°46' W 118°15'0 0.0
2017-Dec-01 09:23N 33°46' W 118°15'0 0.0
2017-Dec-01 08:59N 33°46' W 118°15'0 0.0
2017-Dec-01 03:56N 33°46' W 118°15'0 0.0
2017-Dec-01 03:26N 33°46' W 118°15'0 0.0
2017-Dec-01 02:45N 33°46' W 118°15'0 0.0
2017-Dec-01 02:27N 33°46' W 118°15'0 0.0
2017-Dec-01 01:59N 33°46' W 118°15'0 0.0
2017-Dec-01 01:27N 33°46' W 118°15'0 0.0
2017-Dec-01 00:56N 33°46' W 118°15'0 0.0
2017-Dec-01 00:27N 33°46' W 118°15'0 0.0
2017-Nov-30 23:56N 33°46' W 118°15'0 0.0
2017-Nov-30 23:29N 33°46' W 118°15'0 0.0
2017-Nov-30 22:56N 33°46' W 118°15'0 0.0
2017-Nov-30 22:26N 33°46' W 118°15'0 0.0
2017-Nov-30 21:57N 33°46' W 118°15'0 0.0
2017-Nov-30 21:20N 33°46' W 118°15'0 0.0
2017-Nov-30 13:58N 33°46' W 118°15'3 3.4
2017-Nov-30 13:10N 33°43' W 118°16'3 9.1
2017-Nov-30 12:52N 33°41' W 118°14'3 8.1
2017-Nov-30 12:30N 33°38' W 118°13'510.8
2017-Nov-30 12:00N 33°36' W 118°19'611.2
2017-Nov-30 11:30N 33°38' W 118°26'611.6
2017-Nov-30 11:00N 33°41' W 118°32'611.5
2017-Nov-30 10:29N 33°44' W 118°38'611.5
2017-Nov-30 10:00N 33°47' W 118°44'611.3
2017-Nov-30 09:30N 33°50' W 118°50'611.4
2017-Nov-30 09:00N 33°53' W 118°56'611.5
2017-Nov-30 08:29N 33°56' W 119°02'611.5
2017-Nov-30 08:00N 33°58' W 119°08'612.1
2017-Nov-30 07:29N 34°01' W 119°14'612.0
2017-Nov-30 07:00N 34°04' W 119°21'611.5
2017-Nov-30 06:27N 34°05' W 119°28'511.7
2017-Nov-30 05:59N 34°07' W 119°34'611.5
2017-Nov-30 05:29N 34°08' W 119°41'613.3
2017-Nov-30 05:00N 34°10' W 119°49'613.0
2017-Nov-30 04:30N 34°12' W 119°56'813.6
2017-Nov-30 03:57N 34°14' W 120°05'713.4
2017-Nov-30 03:27N 34°15' W 120°13'713.4
2017-Nov-30 02:57N 34°17' W 120°20'713.0
2017-Nov-30 02:24N 34°19' W 120°29'512.6
2017-Nov-30 01:58N 34°20' W 120°35'613.0
2017-Nov-30 01:30N 34°22' W 120°42'713.6
2017-Nov-30 01:00N 34°24' W 120°50'713.6
2017-Nov-30 00:30N 34°26' W 120°58'713.7
2017-Nov-30 00:00N 34°28' W 121°06'713.9
2017-Nov-29 23:30N 34°30' W 121°14'713.9
2017-Nov-29 23:00N 34°32' W 121°22'713.9
2017-Nov-29 22:31N 34°35' W 121°30'714.1
2017-Nov-29 22:00N 34°37' W 121°38'714.1
2017-Nov-29 21:30N 34°39' W 121°46'714.0
2017-Nov-29 21:00N 34°41' W 121°54'713.9
2017-Nov-29 20:30N 34°44' W 122°02'713.9
2017-Nov-29 20:00N 34°46' W 122°10'714.1
2017-Nov-29 19:30N 34°48' W 122°18'714.0
2017-Nov-29 19:00N 34°50' W 122°26'714.2
2017-Nov-29 18:30N 34°52' W 122°35'612.1
2017-Nov-29 18:01N 34°54' W 122°42'6 7.8
2017-Nov-29 17:12N 34°57' W 122°49'916.3
2017-Nov-29 16:40N 34°59' W 122°59'316.8
2017-Nov-29 16:30N 35°00' W 123°02'816.8
2017-Nov-29 16:01N 35°03' W 123°12'  

Dump ship's entire track history